Alger, Ohio
Current Conditions -  °F | °C
As of 1:30 AM on Monday 24 Nov 2014 (Local Time) from KAOH Reporting Station
Moderate Rain Moderate Rain  
Wind Chill: 57°   Ceiling: 1300
Heat Index: 57°   Visibility: 6mi
Dew Point: 56°   Wind: 20mph
Humidity: 96%   Direction: 180°S
Pressure: 29.16"   Gusts: 30mph
Location:  40.71°N, 83.84°W
Report Text: KAOH 240630Z AUTO 18017G26KT 6SM RA BR SCT008 BKN013 OVC018 14/13 A2916 RMK AO2 PK WND 17027/0605 P0002 T01390133 $
Loading
Personal Weather Stations






























Interactive Weather Map New forecast layout! Learn more

10-Day Weather Forecast

Advertisements
Track Severe Weather on mobile